createdAt,value
2022-09-27T00:01:30.574Z,3.40
2022-09-27T00:04:01.877Z,4.03
2022-09-27T00:06:32.743Z,2.97
2022-09-27T00:09:02.664Z,2.92
2022-09-27T00:11:32.867Z,2.83
2022-09-27T00:14:02.560Z,2.67
2022-09-27T00:16:33.446Z,2.75
2022-09-27T00:19:03.838Z,2.33
2022-09-27T00:21:33.695Z,2.10
2022-09-27T00:24:03.640Z,1.67
2022-09-27T00:26:33.439Z,2.63
2022-09-27T00:29:03.055Z,1.42
2022-09-27T00:31:33.229Z,1.20
2022-09-27T00:34:03.733Z,1.98
2022-09-27T00:36:33.955Z,1.55
2022-09-27T00:39:03.768Z,1.60
2022-09-27T00:41:34.642Z,2.00
2022-09-27T00:44:08.138Z,2.08
2022-09-27T00:46:39.697Z,2.25
2022-09-27T00:49:22.216Z,2.10
2022-09-27T00:51:52.681Z,2.08
2022-09-27T00:54:22.377Z,1.67
2022-09-27T00:56:51.918Z,1.80
2022-09-27T00:59:21.572Z,1.83
2022-09-27T01:01:52.345Z,1.70
2022-09-27T01:04:25.555Z,2.05
2022-09-27T01:06:56.111Z,1.98
2022-09-27T01:09:25.863Z,2.30
2022-09-27T01:12:04.854Z,2.00
2022-09-27T01:19:51.336Z,3.30
2022-09-27T01:22:28.855Z,2.88
2022-09-27T01:25:11.101Z,2.67
2022-09-27T01:28:00.508Z,2.20
2022-09-27T01:30:31.078Z,2.67
2022-09-27T01:33:04.448Z,2.45
2022-09-27T01:35:44.099Z,1.65
2022-09-27T01:38:32.293Z,2.33
2022-09-27T01:41:04.999Z,1.40
2022-09-27T01:43:57.572Z,1.90
2022-09-27T01:46:29.211Z,1.88
2022-09-27T01:48:59.068Z,2.58
2022-09-27T01:51:32.930Z,2.13
2022-09-27T01:54:06.318Z,2.17
2022-09-27T01:56:43.271Z,1.95
2022-09-27T01:59:14.132Z,2.08
2022-09-27T02:01:44.581Z,2.55
2022-09-27T02:04:15.279Z,3.15
2022-09-27T02:06:46.362Z,2.10
2022-09-27T02:09:20.254Z,2.13
2022-09-27T02:11:55.992Z,2.15
2022-09-27T02:14:37.037Z,1.73
2022-09-27T02:17:12.899Z,1.77
2022-09-27T02:20:05.051Z,1.70
2022-09-27T02:22:38.873Z,1.48
2022-09-27T02:25:08.716Z,1.88
2022-09-27T02:27:44.244Z,2.20
2022-09-27T02:30:14.755Z,1.45
2022-09-27T02:32:45.117Z,1.67
2022-09-27T02:35:34.967Z,1.15
2022-09-27T02:38:05.549Z,1.70
2022-09-27T02:40:39.692Z,1.10
2022-09-27T02:43:09.364Z,1.00
2022-09-27T02:45:42.987Z,0.90
2022-09-27T02:48:15.837Z,1.55
2022-09-27T02:51:00.935Z,1.38
2022-09-27T02:53:49.183Z,1.50
2022-09-27T02:56:57.353Z,1.58
2022-09-27T02:59:27.303Z,1.25
2022-09-27T03:02:16.699Z,1.60
2022-09-27T03:04:50.825Z,1.50
2022-09-27T03:07:20.491Z,1.13
2022-09-27T03:09:51.040Z,1.38
2022-09-27T03:12:30.060Z,17.40
2022-09-27T03:15:00.818Z,1.83
2022-09-27T03:17:30.538Z,1.70
2022-09-27T03:20:00.320Z,1.15
2022-09-27T03:22:30.131Z,1.67
2022-09-27T03:24:59.941Z,1.90
2022-09-27T03:27:29.661Z,2.03
2022-09-27T03:29:59.736Z,1.73
2022-09-27T03:32:30.598Z,1.92
2022-09-27T03:35:00.280Z,2.05
2022-09-27T03:37:30.885Z,2.45
2022-09-27T03:40:00.692Z,2.20
2022-09-27T03:42:30.398Z,2.40
2022-09-27T03:45:00.222Z,1.52
2022-09-27T03:47:30.090Z,1.80
2022-09-27T03:49:59.893Z,1.42
2022-09-27T03:52:29.843Z,1.17
2022-09-27T03:55:02.131Z,1.77
2022-09-27T03:57:33.453Z,1.40
2022-09-27T04:00:03.229Z,1.60
2022-09-27T04:02:32.970Z,1.60
2022-09-27T04:05:02.979Z,1.90
2022-09-27T04:07:32.745Z,1.88
2022-09-27T04:10:02.516Z,1.40
2022-09-27T04:12:32.248Z,1.92
2022-09-27T04:15:02.212Z,1.55
2022-09-27T04:17:31.943Z,2.25
2022-09-27T04:20:01.940Z,1.42
2022-09-27T04:22:31.700Z,1.30
2022-09-27T04:25:01.373Z,1.60
2022-09-27T04:27:30.998Z,2.15
2022-09-27T04:30:00.727Z,1.95
2022-09-27T04:32:30.886Z,1.88
2022-09-27T04:35:18.682Z,2.72
2022-09-27T04:37:48.471Z,2.70
2022-09-27T04:40:18.820Z,2.45
2022-09-27T04:42:48.861Z,2.88
2022-09-27T04:45:19.063Z,2.63
2022-09-27T04:47:52.566Z,2.30
2022-09-27T04:50:22.311Z,2.30
2022-09-27T04:52:55.692Z,2.47
2022-09-27T04:55:25.921Z,2.03
2022-09-27T04:57:55.715Z,3.03
2022-09-27T05:00:27.534Z,2.35
2022-09-27T05:02:59.327Z,1.95
2022-09-27T05:05:29.344Z,1.55
2022-09-27T05:07:59.281Z,3.95
2022-09-27T05:10:29.247Z,2.05
2022-09-27T05:12:58.998Z,1.98
2022-09-27T05:15:31.916Z,1.98
2022-09-27T05:18:05.129Z,2.70
2022-09-27T05:20:35.069Z,2.17
2022-09-27T05:23:06.107Z,2.22
2022-09-27T05:25:35.810Z,2.95
2022-09-27T05:28:06.054Z,2.70
2022-09-27T05:30:37.185Z,2.33
2022-09-27T05:33:07.732Z,2.78
2022-09-27T05:35:41.031Z,3.40
2022-09-27T05:38:14.481Z,2.63
2022-09-27T05:40:47.059Z,2.92
2022-09-27T05:43:17.478Z,2.95
2022-09-27T05:45:47.409Z,3.30
2022-09-27T05:51:05.058Z,2.70
2022-09-27T05:53:34.865Z,2.95
2022-09-27T05:56:05.735Z,2.72
2022-09-27T05:58:35.926Z,2.40
2022-09-27T06:01:05.815Z,3.13
2022-09-27T06:03:35.601Z,1.70
2022-09-27T06:06:07.663Z,2.20
2022-09-27T06:08:37.503Z,1.48
2022-09-27T06:11:08.936Z,1.83
2022-09-27T06:13:38.928Z,1.90
2022-09-27T06:16:09.295Z,2.35
2022-09-27T06:18:39.352Z,1.90
2022-09-27T06:21:09.657Z,2.03
2022-09-27T06:23:39.634Z,1.80
2022-09-27T06:26:09.533Z,1.67
2022-09-27T06:28:39.569Z,2.50
2022-09-27T06:31:13.204Z,1.58
2022-09-27T06:33:43.552Z,1.30
2022-09-27T06:36:13.347Z,2.13
2022-09-27T06:38:43.478Z,1.67
2022-09-27T06:41:14.494Z,2.80
2022-09-27T06:43:44.357Z,2.42
2022-09-27T06:46:14.307Z,2.70
2022-09-27T06:48:44.059Z,2.90
2022-09-27T06:51:13.723Z,2.50
2022-09-27T06:53:43.516Z,2.70
2022-09-27T06:56:13.190Z,3.17
2022-09-27T06:59:01.127Z,2.35
2022-09-27T07:01:31.907Z,1.92
2022-09-27T07:04:01.745Z,2.58
2022-09-27T07:06:32.960Z,2.17
2022-09-27T07:09:02.610Z,3.03
2022-09-27T07:11:32.687Z,2.30
2022-09-27T07:14:03.413Z,3.05
2022-09-27T07:16:36.276Z,2.38
2022-09-27T07:19:09.061Z,2.85
2022-09-27T07:21:38.939Z,2.97
2022-09-27T07:24:08.707Z,4.57
2022-09-27T07:26:38.365Z,3.33
2022-09-27T07:29:08.752Z,3.53
2022-09-27T07:31:39.792Z,3.92
2022-09-27T07:34:10.499Z,7.85
2022-09-27T07:36:40.167Z,7.90
2022-09-27T07:39:10.217Z,8.57
2022-09-27T07:41:41.753Z,8.70
2022-09-27T07:44:11.595Z,9.43
2022-09-27T07:46:41.546Z,8.98
2022-09-27T07:49:11.552Z,7.03
2022-09-27T07:51:41.341Z,5.35
2022-09-27T07:54:11.103Z,4.07
2022-09-27T07:56:40.906Z,4.78
2022-09-27T07:59:10.629Z,4.57
2022-09-27T08:01:41.229Z,6.10
2022-09-27T08:04:10.875Z,4.53
2022-09-27T08:06:40.755Z,5.03
2022-09-27T08:09:13.392Z,5.30
2022-09-27T08:11:43.308Z,6.15
2022-09-27T08:14:13.661Z,6.05
2022-09-27T08:16:43.864Z,5.82
2022-09-27T08:19:13.711Z,5.72
2022-09-27T08:21:43.327Z,6.38
2022-09-27T08:24:13.445Z,8.98
2022-09-27T08:26:43.277Z,9.15
2022-09-27T08:29:14.225Z,7.57
2022-09-27T08:31:44.024Z,8.90
2022-09-27T08:34:14.235Z,5.97
2022-09-27T08:36:45.624Z,7.78
2022-09-27T08:39:15.425Z,7.65
2022-09-27T08:42:03.613Z,7.97
2022-09-27T08:44:42.624Z,8.07
2022-09-27T08:47:21.093Z,8.02
2022-09-27T08:49:53.997Z,7.93
2022-09-27T08:52:25.649Z,8.35
2022-09-27T08:54:55.675Z,7.63
2022-09-27T08:57:25.505Z,8.30
2022-09-27T08:59:58.514Z,7.80
2022-09-27T09:02:28.649Z,7.78
2022-09-27T09:04:59.404Z,5.30
2022-09-27T09:07:33.564Z,5.50
2022-09-27T09:10:38.537Z,6.38
2022-09-27T09:13:34.286Z,6.55
2022-09-27T09:16:04.154Z,6.93
2022-09-27T09:18:36.818Z,6.22
2022-09-27T09:21:06.819Z,7.47
2022-09-27T09:23:36.430Z,6.57
2022-09-27T09:26:09.146Z,7.03
2022-09-27T09:28:56.988Z,7.40
2022-09-27T09:31:32.908Z,7.88
2022-09-27T09:34:13.594Z,7.25
2022-09-27T09:37:03.503Z,8.43
2022-09-27T09:39:37.938Z,7.63
2022-09-27T09:42:10.706Z,6.97
2022-09-27T09:44:49.573Z,7.30
2022-09-27T09:47:31.023Z,7.35
2022-09-27T09:50:04.269Z,7.82
2022-09-27T09:52:41.031Z,7.97
2022-09-27T09:55:17.012Z,8.10
2022-09-27T09:57:55.971Z,9.07
2022-09-27T10:00:25.718Z,9.35
2022-09-27T10:02:56.593Z,10.23
2022-09-27T10:05:26.844Z,10.10
2022-09-27T10:07:57.803Z,9.57
2022-09-27T10:10:27.736Z,10.80
2022-09-27T10:13:00.723Z,10.57
2022-09-27T10:15:31.794Z,12.40
2022-09-27T10:18:02.656Z,16.95
2022-09-27T10:20:33.887Z,12.98
2022-09-27T10:23:14.167Z,11.82
2022-09-27T10:25:54.428Z,10.88
2022-09-27T10:28:38.493Z,10.52
2022-09-27T10:31:12.845Z,10.73
2022-09-27T10:33:54.489Z,10.15
2022-09-27T10:36:33.761Z,11.07
2022-09-27T10:39:05.837Z,9.02
2022-09-27T10:41:35.516Z,8.90
2022-09-27T10:44:20.666Z,11.07
2022-09-27T10:46:54.754Z,11.23
2022-09-27T10:49:24.420Z,9.18
2022-09-27T10:51:55.741Z,8.38
2022-09-27T10:54:32.129Z,8.32
2022-09-27T10:57:18.489Z,8.07
2022-09-27T10:59:50.031Z,7.30
2022-09-27T11:02:27.780Z,8.02
2022-09-27T11:05:14.514Z,38.40
2022-09-27T11:07:57.741Z,11.80
2022-09-27T11:10:37.403Z,7.05
2022-09-27T11:13:12.114Z,6.85
2022-09-27T11:15:55.598Z,5.95
2022-09-27T11:18:25.726Z,6.55
2022-09-27T11:21:16.331Z,6.25
2022-09-27T11:23:46.261Z,6.45
2022-09-27T11:26:16.640Z,6.18
2022-09-27T11:28:50.831Z,7.60
2022-09-27T11:31:33.247Z,7.90
2022-09-27T11:34:09.998Z,9.43
2022-09-27T11:36:50.342Z,8.43
2022-09-27T11:39:22.824Z,9.45
2022-09-27T11:42:10.922Z,9.10
2022-09-27T11:45:31.825Z,8.43
2022-09-27T11:48:02.175Z,9.05
2022-09-27T11:50:41.788Z,9.07
2022-09-27T11:53:33.916Z,8.52
2022-09-27T11:56:10.275Z,8.77
2022-09-27T11:58:50.237Z,9.70
2022-09-27T12:01:33.133Z,10.43
2022-09-27T12:04:07.214Z,8.52
2022-09-27T12:07:01.196Z,9.98
2022-09-27T12:09:38.572Z,10.82
2022-09-27T12:12:25.681Z,11.85
2022-09-27T12:14:57.529Z,10.95
2022-09-27T12:17:31.059Z,11.63
2022-09-27T12:20:02.352Z,11.07
2022-09-27T12:22:58.247Z,11.80
2022-09-27T12:25:34.284Z,11.43
2022-09-27T12:28:05.156Z,11.77
2022-09-27T12:30:39.129Z,11.10
2022-09-27T12:33:29.310Z,10.68
2022-09-27T12:36:01.286Z,10.82
2022-09-27T12:38:35.916Z,10.52
2022-09-27T12:41:06.885Z,10.02
2022-09-27T12:43:38.241Z,10.88
2022-09-27T12:46:33.305Z,12.98
2022-09-27T12:49:07.532Z,10.07
2022-09-27T12:51:46.115Z,13.85
2022-09-27T12:54:17.258Z,13.68
2022-09-27T12:57:06.506Z,12.80
2022-09-27T12:59:49.976Z,12.85
2022-09-27T13:02:57.425Z,12.85
2022-09-27T13:05:37.313Z,13.45
2022-09-27T13:08:30.500Z,13.10
2022-09-27T13:11:05.918Z,13.55
2022-09-27T13:13:36.859Z,13.95
2022-09-27T13:16:08.086Z,13.80
2022-09-27T13:18:38.741Z,11.98
2022-09-27T13:21:10.122Z,11.60
2022-09-27T13:23:46.708Z,11.07
2022-09-27T13:26:26.696Z,9.40
2022-09-27T13:29:00.158Z,9.77
2022-09-27T13:31:49.672Z,9.18
2022-09-27T13:34:39.850Z,7.80
2022-09-27T13:37:28.024Z,6.90
2022-09-27T13:40:15.758Z,7.78
2022-09-27T13:42:52.350Z,9.85
2022-09-27T13:45:32.648Z,10.60
2022-09-27T13:48:03.518Z,9.50
2022-09-27T13:50:49.624Z,9.40
2022-09-27T13:53:25.960Z,10.02
2022-09-27T13:55:56.453Z,9.65
2022-09-27T13:58:45.167Z,9.77
2022-09-27T14:01:31.988Z,9.25
2022-09-27T14:04:14.087Z,16.30
2022-09-27T14:06:48.624Z,13.23
2022-09-27T14:09:22.435Z,14.25
2022-09-27T14:11:57.265Z,15.20
2022-09-27T14:14:28.587Z,13.68
2022-09-27T14:16:58.645Z,11.70
2022-09-27T14:19:28.724Z,10.00
2022-09-27T14:21:58.759Z,9.60
2022-09-27T14:24:33.087Z,9.82
2022-09-27T14:27:22.276Z,10.90
2022-09-27T14:29:59.700Z,13.32
2022-09-27T14:32:30.935Z,11.93
2022-09-27T14:35:34.189Z,12.75
2022-09-27T14:38:33.042Z,11.82
2022-09-27T14:41:04.271Z,9.82
2022-09-27T14:43:34.629Z,10.40
2022-09-27T14:46:08.535Z,9.10
2022-09-27T14:48:42.478Z,10.02
2022-09-27T14:51:14.796Z,9.98
2022-09-27T14:53:48.783Z,9.23
2022-09-27T14:56:20.867Z,9.40
2022-09-27T14:58:51.802Z,7.65
2022-09-27T15:01:22.090Z,8.10
2022-09-27T15:03:52.420Z,8.55
2022-09-27T15:06:22.327Z,8.30
2022-09-27T15:08:52.190Z,7.28
2022-09-27T15:11:22.118Z,7.30
2022-09-27T15:13:53.118Z,7.43
2022-09-27T15:16:23.781Z,7.93
2022-09-27T15:19:01.437Z,7.50
2022-09-27T15:21:37.339Z,6.78
2022-09-27T15:24:07.255Z,7.55
2022-09-27T15:26:40.202Z,7.60
2022-09-27T15:29:12.956Z,8.10
2022-09-27T15:31:42.854Z,8.35
2022-09-27T15:34:18.581Z,8.15
2022-09-27T15:36:54.135Z,7.78
2022-09-27T15:39:26.866Z,8.05
2022-09-27T15:42:03.092Z,7.10
2022-09-27T15:44:40.217Z,5.93
2022-09-27T15:47:21.612Z,5.65
2022-09-27T15:49:51.433Z,6.15
2022-09-27T15:52:40.842Z,6.00
2022-09-27T15:55:13.966Z,3.47
2022-09-27T15:57:43.812Z,3.40
2022-09-27T16:00:15.153Z,4.00
2022-09-27T16:02:45.122Z,5.00
2022-09-27T16:05:15.002Z,6.13
2022-09-27T16:07:44.819Z,4.72
2022-09-27T16:10:21.271Z,5.07
2022-09-27T16:12:52.280Z,3.72
2022-09-27T16:15:22.030Z,3.38
2022-09-27T16:17:51.912Z,4.50
2022-09-27T16:20:24.927Z,3.90
2022-09-27T16:22:55.575Z,4.45
2022-09-27T16:25:25.665Z,3.67
2022-09-27T16:27:55.502Z,4.13
2022-09-27T16:30:25.281Z,4.40
2022-09-27T16:32:56.250Z,6.95
2022-09-27T16:35:26.474Z,6.50
2022-09-27T16:37:56.457Z,6.07
2022-09-27T16:40:28.134Z,6.68
2022-09-27T16:42:57.943Z,7.10
2022-09-27T16:45:34.174Z,9.75
2022-09-27T16:48:07.519Z,11.48
2022-09-27T16:50:55.154Z,13.23
2022-09-27T16:53:25.007Z,13.43
2022-09-27T16:55:55.141Z,9.20
2022-09-27T16:58:24.820Z,9.40
2022-09-27T17:00:55.066Z,10.77
2022-09-27T17:03:24.864Z,11.10
2022-09-27T17:05:54.791Z,11.48
2022-09-27T17:08:28.306Z,8.40
2022-09-27T17:10:58.686Z,7.95
2022-09-27T17:13:28.737Z,8.80
2022-09-27T17:15:58.594Z,7.15
2022-09-27T17:18:28.680Z,6.93
2022-09-27T17:21:02.964Z,8.52
2022-09-27T17:23:33.408Z,7.38
2022-09-27T17:26:10.657Z,8.60
2022-09-27T17:28:40.336Z,8.75
2022-09-27T17:31:11.787Z,8.55
2022-09-27T17:33:45.876Z,7.25
2022-09-27T17:36:19.133Z,7.25
2022-09-27T17:38:50.033Z,6.85
2022-09-27T17:41:20.685Z,5.70
2022-09-27T17:43:53.149Z,8.35
2022-09-27T17:46:23.924Z,9.07
2022-09-27T17:49:11.598Z,7.28
2022-09-27T17:51:42.005Z,9.10
2022-09-27T17:54:12.287Z,7.43
2022-09-27T17:56:42.248Z,10.52
2022-09-27T17:59:12.409Z,9.45
2022-09-27T18:01:42.628Z,9.30
2022-09-27T18:04:12.939Z,9.23
2022-09-27T18:06:43.272Z,8.68
2022-09-27T18:09:13.531Z,10.48
2022-09-27T18:11:43.273Z,11.70
2022-09-27T18:14:13.720Z,12.07
2022-09-27T18:16:44.495Z,12.00
2022-09-27T18:19:15.426Z,13.40
2022-09-27T18:21:45.517Z,14.00
2022-09-27T18:24:15.527Z,13.88
2022-09-27T18:26:45.614Z,15.18
2022-09-27T18:29:22.096Z,14.30
2022-09-27T18:31:52.028Z,12.98
2022-09-27T18:34:22.410Z,13.98
2022-09-27T18:36:52.360Z,14.30
2022-09-27T18:39:22.273Z,14.27
2022-09-27T18:41:52.066Z,16.10
2022-09-27T18:44:21.764Z,16.30
2022-09-27T18:46:51.617Z,15.75
2022-09-27T18:49:25.745Z,16.95
2022-09-27T18:51:57.398Z,17.67
2022-09-27T18:54:27.375Z,15.80
2022-09-27T18:56:57.341Z,14.95
2022-09-27T18:59:27.202Z,16.02
2022-09-27T19:01:57.103Z,18.15
2022-09-27T19:04:28.022Z,16.27
2022-09-27T19:06:58.150Z,15.32
2022-09-27T19:09:30.548Z,16.48
2022-09-27T19:12:00.338Z,18.35
2022-09-27T19:14:30.799Z,21.02
2022-09-27T19:17:00.420Z,22.92
2022-09-27T19:19:30.234Z,18.58
2022-09-27T19:22:00.054Z,19.70
2022-09-27T19:24:29.847Z,22.55
2022-09-27T19:26:59.662Z,22.58
2022-09-27T19:29:29.525Z,18.65
2022-09-27T19:31:59.440Z,20.38
2022-09-27T19:34:29.193Z,22.70
2022-09-27T19:36:58.969Z,21.88
2022-09-27T19:39:28.649Z,18.40
2022-09-27T19:41:58.372Z,18.20
2022-09-27T19:44:28.173Z,25.10
2022-09-27T19:46:58.115Z,16.33
2022-09-27T19:49:28.121Z,15.93
2022-09-27T19:51:57.917Z,19.67
2022-09-27T19:54:27.675Z,20.02
2022-09-27T19:56:57.709Z,23.17
2022-09-27T19:59:27.372Z,23.92
2022-09-27T20:01:57.276Z,23.17
2022-09-27T20:04:28.290Z,23.08
2022-09-27T20:06:58.230Z,23.45
2022-09-27T20:09:27.943Z,23.38
2022-09-27T20:11:57.555Z,23.33
2022-09-27T20:14:27.544Z,22.50
2022-09-27T20:16:57.219Z,21.90
2022-09-27T20:19:27.244Z,20.52
2022-09-27T20:21:56.880Z,23.00
2022-09-27T20:24:26.530Z,20.77
2022-09-27T20:26:56.308Z,20.65
2022-09-27T20:29:26.314Z,18.40
2022-09-27T20:32:22.856Z,19.63
2022-09-27T20:34:45.911Z,18.35
2022-09-27T20:37:15.839Z,19.27
2022-09-27T20:39:45.673Z,16.90
2022-09-27T20:42:15.777Z,16.00
2022-09-27T20:44:45.480Z,15.02
2022-09-27T20:47:15.523Z,12.48
2022-09-27T20:49:45.387Z,13.77
2022-09-27T20:52:15.237Z,13.90
2022-09-27T20:54:44.967Z,11.98
2022-09-27T20:57:14.592Z,11.00
2022-09-27T20:59:44.313Z,10.98
2022-09-27T21:02:14.212Z,9.38
2022-09-27T21:04:43.958Z,9.15
2022-09-27T21:07:13.610Z,8.40
2022-09-27T21:09:43.251Z,8.45
2022-09-27T21:12:13.175Z,7.40
2022-09-27T21:14:42.872Z,9.40
2022-09-27T21:17:12.672Z,7.60
2022-09-27T21:19:42.626Z,8.15
2022-09-27T21:22:12.285Z,7.63
2022-09-27T21:24:41.967Z,7.40
2022-09-27T21:27:11.752Z,7.50
2022-09-27T21:29:41.422Z,8.15
2022-09-27T21:32:11.296Z,8.18
2022-09-27T21:34:40.947Z,9.35
2022-09-27T21:37:11.579Z,8.93
2022-09-27T21:39:41.678Z,9.63
2022-09-27T21:42:11.337Z,9.25
2022-09-27T21:44:41.016Z,9.50
2022-09-27T21:47:10.757Z,9.93
2022-09-27T21:49:40.575Z,8.75
2022-09-27T21:52:10.333Z,8.75
2022-09-27T21:54:40.261Z,8.70
2022-09-27T21:57:10.149Z,8.45
2022-09-27T21:59:39.884Z,6.45
2022-09-27T22:02:09.529Z,6.28
2022-09-27T22:04:39.428Z,6.07
2022-09-27T22:07:09.205Z,6.82
2022-09-27T22:09:38.790Z,7.00
2022-09-27T22:12:08.623Z,8.02
2022-09-27T22:14:38.279Z,6.53
2022-09-27T22:17:08.225Z,6.55
2022-09-27T22:19:38.046Z,5.90
2022-09-27T22:22:07.771Z,6.43
2022-09-27T22:24:37.576Z,6.20
2022-09-27T22:27:07.395Z,5.32
2022-09-27T22:29:37.036Z,4.55
2022-09-27T22:32:07.131Z,4.93
2022-09-27T22:34:37.082Z,4.60
2022-09-27T22:37:06.846Z,4.57
2022-09-27T22:39:36.532Z,5.45
2022-09-27T22:42:06.292Z,6.93
2022-09-27T22:44:36.307Z,5.22
2022-09-27T22:47:06.023Z,4.60
2022-09-27T22:49:35.777Z,3.97
2022-09-27T22:52:05.572Z,4.10
2022-09-27T22:54:35.329Z,4.07
2022-09-27T22:57:05.079Z,4.43
2022-09-27T22:59:53.709Z,3.88
2022-09-27T23:02:23.392Z,4.32
2022-09-27T23:04:53.199Z,3.80
2022-09-27T23:07:23.178Z,5.10
2022-09-27T23:09:53.145Z,4.28
2022-09-27T23:12:23.456Z,4.45
2022-09-27T23:14:53.130Z,4.78
2022-09-27T23:17:22.864Z,4.05
2022-09-27T23:19:52.547Z,5.30
2022-09-27T23:22:22.469Z,5.80
2022-09-27T23:24:52.403Z,6.45
2022-09-27T23:27:40.439Z,6.60
2022-09-27T23:30:13.059Z,6.72
2022-09-27T23:32:46.345Z,6.15
2022-09-27T23:35:16.262Z,7.55
2022-09-27T23:37:45.976Z,7.78
2022-09-27T23:40:16.434Z,12.48
2022-09-27T23:42:46.285Z,11.90
2022-09-27T23:45:17.296Z,13.90
2022-09-27T23:47:47.061Z,15.80
2022-09-27T23:50:16.835Z,17.38
2022-09-27T23:52:46.637Z,17.65
2022-09-27T23:55:16.420Z,15.85
2022-09-27T23:57:46.957Z,17.38
